MMUN/CUN METAR and TAF weather

Enter ICAO airport designator
Station Type Date Time Source
MMUN METAR 2018/12/10 01:41 UTC NOAA

MMUN 100141Z 36003KT 6SM BKN015 BKN070 24/23 A3006 RMK 8/770 -RA INTMT


Station Type Date Time Source
MMUN Decoded METAR 2018/12/10 01:41 UTC NOAA

Cancun International Airport, Mexico (MMUN) 21-02N 086-52W
Dec 09, 2018 - 08:41 PM EST / 2018.12.10 0141 UTC
Wind: from the N (360 degrees) at 3 MPH (3 KT):0
Visibility: 6 mile(s):0
Sky conditions: mostly cloudy
Temperature: 75 F (24 C)
Dew Point: 73 F (23 C)
Relative Humidity: 94%
Pressure (altimeter): 30.06 in. Hg (1017 hPa)
ob: MMUN 100141Z 36003KT 6SM BKN015 BKN070 24/23 A3006 RMK 8/770 -RA INTMT
cycle: 1

Station Type Date Time Source
MMUN TAF 2018/12/09 18:59 UTC NOAA

TAF MMUN 091656Z 0918/1024 20010KT P6SM RA BKN015CB BKN080 TX29/0918Z TN23/1012Z
TEMPO 0918/0921 3SM RA
FM092100 34015KT P6SM BKN020 BKN080 PROB40 0923/1003 5SM RA
FM100600 35015KT P6SM SCT015 BKN100
FM101800 02012KT P6SM SCT015 BKN250


Example: see airport list